Airfield :
LOGIN :

Register | Disclaimer

   EN    FR    IT 

 










Legend :    VFR   Marginal VFR   IFR   Intensive IFR   Very Intensive IFR
Visi :
Ceiling :
>= 8 km
>= 3000ft
5 to 8 km
1000 to 3000 ft
1500m to 5 km
500 to 1000 ft
800 to 1500m
200 to 500 ft
< 800m
< 200 ft
Symbols :   Thunderstorms  Fog  Heavy snow  Heavy precipitations  Wind > 20 kt
SIGMETs :     Misc.  Thunderstorms  Icing  Turbulence  Mountain Waves  Volcanic Ashes






- Airport Elevation : 135 ft
- IATA code : EDI


EGPH - Edinburgh

CURRENT METAR :
  • 211650Z 05006KT 9999 5000NW VCSH FEW008 SCT042 12/10 Q1011

EXPIRED METARs :
  • 211620Z 08007KT 7000 -SHRA SCT012 SCT046 12/10 Q1011
  • 211550Z 09007KT 9999 SCT012 13/10 Q1011
  • 211520Z 06009KT 9999 SCT013 14/11 Q1012
  • 211450Z 07008KT 9999 SCT010 14/11 Q1012
  • 211420Z 07008KT 030V110 9999 SCT007 13/11 Q1012
  • 211350Z 06009KT 9999 BKN007 12/10 Q1012
  • 211320Z 06009KT 9999 BKN007 13/10 Q1012
  • 211250Z 04009KT 9999 BKN007 13/10 Q1012
  • 211220Z 05009KT 9999 SCT008 13/10 Q1012

TAF AMD TAF EGPH
Valid from the 21 at 16:00 until the 22 at 12:00 UTC


211628Z 2116/2212 06008KT 9999 SCT012
TEMPO 2116/2201 7000 BKN006
PROB40
TEMPO 2120/2201 4000 -DZ BR BKN004
BECMG 2201/2204 BKN004
TEMPO 2201/2209 2000 -DZ BR BKN001
PROB40 2202/2208 0300 DZ FG
BECMG 2209/2212 SCT015
PROB40
TEMPO 2210/2212 6000 RA SHRA
ATIS : +44 131 339 2823



MET'MAP, your aeronautical weather chart ! - Copyright ORBIFLY December 2007 - Disclaimer

ORBIFLY MET'MAP TEAM :

Programming & Development : Alexandra Zaïnal
Original concept : Baudouin d'Aumeries
Technical & hardware support : Manuel Goepfert
Assistance : Marc-Olivier Méhu




SOURCES & CREDITS :

   NOAA